sensor_id;sensor_type;location;lat;lon;timestamp;P1;durP1;ratioP1;P2;durP2;ratioP2
74320;SDS011;62738;45.772;4.804;2023-08-06T00:00:37;1.30;;;0.70;;
74320;SDS011;62738;45.772;4.804;2023-08-06T00:03:04;1.45;;;0.80;;
74320;SDS011;62738;45.772;4.804;2023-08-06T00:05:32;1.65;;;0.80;;
74320;SDS011;62738;45.772;4.804;2023-08-06T00:07:59;2.05;;;0.70;;
74320;SDS011;62738;45.772;4.804;2023-08-06T00:10:25;1.17;;;0.80;;
74320;SDS011;62738;45.772;4.804;2023-08-06T00:12:52;1.08;;;0.60;;
74320;SDS011;62738;45.772;4.804;2023-08-06T00:15:18;0.93;;;0.65;;
74320;SDS011;62738;45.772;4.804;2023-08-06T00:17:45;2.30;;;0.70;;
74320;SDS011;62738;45.772;4.804;2023-08-06T00:20:12;1.48;;;0.63;;
74320;SDS011;62738;45.772;4.804;2023-08-06T00:22:39;2.67;;;0.70;;
74320;SDS011;62738;45.772;4.804;2023-08-06T00:25:06;1.20;;;0.70;;
74320;SDS011;62738;45.772;4.804;2023-08-06T00:27:33;1.08;;;0.70;;
74320;SDS011;62738;45.772;4.804;2023-08-06T00:29:59;0.98;;;0.65;;
74320;SDS011;62738;45.772;4.804;2023-08-06T00:32:26;1.15;;;0.70;;
74320;SDS011;62738;45.772;4.804;2023-08-06T00:34:53;1.17;;;0.80;;
74320;SDS011;62738;45.772;4.804;2023-08-06T00:37:19;1.95;;;0.80;;
74320;SDS011;62738;45.772;4.804;2023-08-06T00:39:46;3.17;;;0.70;;
74320;SDS011;62738;45.772;4.804;2023-08-06T00:42:12;1.02;;;0.73;;
74320;SDS011;62738;45.772;4.804;2023-08-06T00:44:39;1.30;;;0.70;;
74320;SDS011;62738;45.772;4.804;2023-08-06T00:47:06;2.78;;;0.70;;
74320;SDS011;62738;45.772;4.804;2023-08-06T00:49:37;1.13;;;0.65;;
74320;SDS011;62738;45.772;4.804;2023-08-06T00:52:05;1.45;;;0.70;;
74320;SDS011;62738;45.772;4.804;2023-08-06T00:54:34;1.60;;;0.70;;
74320;SDS011;62738;45.772;4.804;2023-08-06T00:57:01;1.50;;;0.93;;
74320;SDS011;62738;45.772;4.804;2023-08-06T00:59:29;2.65;;;0.80;;
74320;SDS011;62738;45.772;4.804;2023-08-06T01:01:57;2.97;;;1.00;;
74320;SDS011;62738;45.772;4.804;2023-08-06T01:04:24;1.48;;;0.70;;
74320;SDS011;62738;45.772;4.804;2023-08-06T01:07:02;2.08;;;0.80;;
74320;SDS011;62738;45.772;4.804;2023-08-06T01:14:50;2.33;;;0.70;;
74320;SDS011;62738;45.772;4.804;2023-08-06T01:17:24;2.92;;;0.88;;
74320;SDS011;62738;45.772;4.804;2023-08-06T01:19:53;2.17;;;0.68;;
74320;SDS011;62738;45.772;4.804;2023-08-06T01:22:19;1.70;;;0.73;;
74320;SDS011;62738;45.772;4.804;2023-08-06T01:24:47;2.10;;;0.60;;
74320;SDS011;62738;45.772;4.804;2023-08-06T01:27:18;1.80;;;0.50;;
74320;SDS011;62738;45.772;4.804;2023-08-06T01:32:49;3.63;;;0.95;;
74320;SDS011;62738;45.772;4.804;2023-08-06T01:35:19;3.10;;;1.10;;
74320;SDS011;62738;45.772;4.804;2023-08-06T01:37:47;3.13;;;0.70;;
74320;SDS011;62738;45.772;4.804;2023-08-06T01:40:15;2.40;;;0.80;;
74320;SDS011;62738;45.772;4.804;2023-08-06T01:42:41;5.40;;;1.08;;
74320;SDS011;62738;45.772;4.804;2023-08-06T01:45:08;2.95;;;0.90;;
74320;SDS011;62738;45.772;4.804;2023-08-06T01:47:36;3.47;;;1.10;;
74320;SDS011;62738;45.772;4.804;2023-08-06T01:50:03;6.93;;;1.10;;
74320;SDS011;62738;45.772;4.804;2023-08-06T01:52:29;5.30;;;1.30;;
74320;SDS011;62738;45.772;4.804;2023-08-06T01:54:56;6.07;;;1.08;;
74320;SDS011;62738;45.772;4.804;2023-08-06T01:57:23;6.22;;;1.30;;
74320;SDS011;62738;45.772;4.804;2023-08-06T01:59:50;5.45;;;1.33;;
74320;SDS011;62738;45.772;4.804;2023-08-06T02:02:17;6.57;;;1.40;;
74320;SDS011;62738;45.772;4.804;2023-08-06T02:04:43;6.70;;;1.40;;
74320;SDS011;62738;45.772;4.804;2023-08-06T02:07:10;3.13;;;1.00;;
74320;SDS011;62738;45.772;4.804;2023-08-06T02:09:37;5.85;;;1.02;;
74320;SDS011;62738;45.772;4.804;2023-08-06T02:12:03;5.60;;;1.35;;
74320;SDS011;62738;45.772;4.804;2023-08-06T02:14:30;4.80;;;1.45;;
74320;SDS011;62738;45.772;4.804;2023-08-06T02:16:57;8.02;;;1.35;;
74320;SDS011;62738;45.772;4.804;2023-08-06T02:19:23;5.90;;;1.38;;
74320;SDS011;62738;45.772;4.804;2023-08-06T02:21:50;7.90;;;1.40;;
74320;SDS011;62738;45.772;4.804;2023-08-06T02:24:17;6.28;;;1.45;;
74320;SDS011;62738;45.772;4.804;2023-08-06T02:26:44;8.48;;;1.42;;
74320;SDS011;62738;45.772;4.804;2023-08-06T02:29:10;10.75;;;1.50;;
74320;SDS011;62738;45.772;4.804;2023-08-06T02:31:37;7.75;;;1.65;;
74320;SDS011;62738;45.772;4.804;2023-08-06T02:34:04;6.25;;;1.15;;
74320;SDS011;62738;45.772;4.804;2023-08-06T02:36:30;8.45;;;1.10;;
74320;SDS011;62738;45.772;4.804;2023-08-06T02:38:57;11.07;;;1.50;;
74320;SDS011;62738;45.772;4.804;2023-08-06T02:41:24;8.48;;;1.63;;
74320;SDS011;62738;45.772;4.804;2023-08-06T02:43:52;6.60;;;1.65;;
74320;SDS011;62738;45.772;4.804;2023-08-06T02:46:18;9.73;;;1.50;;
74320;SDS011;62738;45.772;4.804;2023-08-06T02:48:45;8.15;;;1.50;;
74320;SDS011;62738;45.772;4.804;2023-08-06T02:51:12;9.98;;;1.63;;
74320;SDS011;62738;45.772;4.804;2023-08-06T02:53:38;11.52;;;1.70;;
74320;SDS011;62738;45.772;4.804;2023-08-06T02:56:05;6.55;;;1.30;;
74320;SDS011;62738;45.772;4.804;2023-08-06T02:58:32;7.80;;;1.77;;
74320;SDS011;62738;45.772;4.804;2023-08-06T03:01:01;10.18;;;1.65;;
74320;SDS011;62738;45.772;4.804;2023-08-06T03:03:30;7.95;;;1.50;;
74320;SDS011;62738;45.772;4.804;2023-08-06T03:05:57;9.02;;;1.42;;
74320;SDS011;62738;45.772;4.804;2023-08-06T03:08:24;7.20;;;1.50;;
74320;SDS011;62738;45.772;4.804;2023-08-06T03:10:52;7.47;;;1.38;;
74320;SDS011;62738;45.772;4.804;2023-08-06T03:13:19;11.93;;;1.90;;
74320;SDS011;62738;45.772;4.804;2023-08-06T03:15:52;10.15;;;1.90;;
74320;SDS011;62738;45.772;4.804;2023-08-06T03:18:20;10.50;;;1.80;;
74320;SDS011;62738;45.772;4.804;2023-08-06T03:20:47;6.10;;;1.30;;
74320;SDS011;62738;45.772;4.804;2023-08-06T03:23:14;12.30;;;1.63;;
74320;SDS011;62738;45.772;4.804;2023-08-06T03:25:41;8.98;;;2.25;;
74320;SDS011;62738;45.772;4.804;2023-08-06T03:28:08;14.13;;;2.03;;
74320;SDS011;62738;45.772;4.804;2023-08-06T03:30:35;8.57;;;1.55;;
74320;SDS011;62738;45.772;4.804;2023-08-06T03:33:01;7.22;;;1.52;;
74320;SDS011;62738;45.772;4.804;2023-08-06T03:35:28;9.65;;;1.55;;
74320;SDS011;62738;45.772;4.804;2023-08-06T03:37:54;9.15;;;1.67;;
74320;SDS011;62738;45.772;4.804;2023-08-06T03:40:22;8.48;;;1.65;;
74320;SDS011;62738;45.772;4.804;2023-08-06T03:42:48;7.20;;;1.70;;
74320;SDS011;62738;45.772;4.804;2023-08-06T03:45:15;10.10;;;1.73;;
74320;SDS011;62738;45.772;4.804;2023-08-06T03:47:42;11.43;;;1.98;;
74320;SDS011;62738;45.772;4.804;2023-08-06T03:50:09;10.43;;;1.80;;
74320;SDS011;62738;45.772;4.804;2023-08-06T03:52:36;13.70;;;2.35;;
74320;SDS011;62738;45.772;4.804;2023-08-06T03:55:03;9.15;;;1.63;;
74320;SDS011;62738;45.772;4.804;2023-08-06T03:57:29;8.18;;;1.65;;
74320;SDS011;62738;45.772;4.804;2023-08-06T03:59:56;11.10;;;1.88;;
74320;SDS011;62738;45.772;4.804;2023-08-06T04:02:23;8.55;;;2.15;;
74320;SDS011;62738;45.772;4.804;2023-08-06T04:04:49;7.43;;;1.80;;
74320;SDS011;62738;45.772;4.804;2023-08-06T04:07:16;11.68;;;1.80;;
74320;SDS011;62738;45.772;4.804;2023-08-06T04:09:52;6.43;;;1.30;;
74320;SDS011;62738;45.772;4.804;2023-08-06T04:12:20;8.68;;;1.60;;
74320;SDS011;62738;45.772;4.804;2023-08-06T04:14:48;9.02;;;2.22;;
74320;SDS011;62738;45.772;4.804;2023-08-06T04:17:14;5.97;;;1.35;;
74320;SDS011;62738;45.772;4.804;2023-08-06T04:19:41;9.02;;;1.27;;
74320;SDS011;62738;45.772;4.804;2023-08-06T04:22:08;6.93;;;1.23;;
74320;SDS011;62738;45.772;4.804;2023-08-06T04:24:34;7.38;;;1.20;;
74320;SDS011;62738;45.772;4.804;2023-08-06T04:27:01;8.90;;;1.40;;
74320;SDS011;62738;45.772;4.804;2023-08-06T04:29:27;7.68;;;1.05;;
74320;SDS011;62738;45.772;4.804;2023-08-06T04:31:54;8.57;;;1.27;;
74320;SDS011;62738;45.772;4.804;2023-08-06T04:34:21;3.53;;;0.90;;
74320;SDS011;62738;45.772;4.804;2023-08-06T04:36:48;7.53;;;0.98;;
74320;SDS011;62738;45.772;4.804;2023-08-06T04:39:15;2.35;;;0.73;;
74320;SDS011;62738;45.772;4.804;2023-08-06T04:41:41;6.10;;;0.93;;
74320;SDS011;62738;45.772;4.804;2023-08-06T04:44:08;4.10;;;1.10;;
74320;SDS011;62738;45.772;4.804;2023-08-06T04:46:34;6.43;;;0.98;;
74320;SDS011;62738;45.772;4.804;2023-08-06T04:49:04;4.47;;;1.10;;
74320;SDS011;62738;45.772;4.804;2023-08-06T04:51:30;6.32;;;1.08;;
74320;SDS011;62738;45.772;4.804;2023-08-06T04:53:57;5.43;;;1.10;;
74320;SDS011;62738;45.772;4.804;2023-08-06T04:56:24;4.90;;;1.10;;
74320;SDS011;62738;45.772;4.804;2023-08-06T04:58:50;7.25;;;1.55;;
74320;SDS011;62738;45.772;4.804;2023-08-06T05:01:17;5.28;;;1.10;;
74320;SDS011;62738;45.772;4.804;2023-08-06T05:03:44;6.28;;;1.08;;
74320;SDS011;62738;45.772;4.804;2023-08-06T05:06:13;8.70;;;1.38;;
74320;SDS011;62738;45.772;4.804;2023-08-06T05:08:39;5.60;;;1.35;;
74320;SDS011;62738;45.772;4.804;2023-08-06T05:11:06;7.57;;;1.25;;
74320;SDS011;62738;45.772;4.804;2023-08-06T05:13:33;5.93;;;1.13;;
74320;SDS011;62738;45.772;4.804;2023-08-06T05:15:59;6.15;;;1.00;;
74320;SDS011;62738;45.772;4.804;2023-08-06T05:18:26;4.72;;;1.27;;
74320;SDS011;62738;45.772;4.804;2023-08-06T05:20:52;4.25;;;1.08;;
74320;SDS011;62738;45.772;4.804;2023-08-06T05:23:19;5.38;;;1.45;;
74320;SDS011;62738;45.772;4.804;2023-08-06T05:25:46;6.45;;;1.20;;
74320;SDS011;62738;45.772;4.804;2023-08-06T05:28:12;4.63;;;1.13;;
74320;SDS011;62738;45.772;4.804;2023-08-06T05:30:39;7.25;;;1.10;;
74320;SDS011;62738;45.772;4.804;2023-08-06T05:33:07;6.68;;;1.10;;
74320;SDS011;62738;45.772;4.804;2023-08-06T05:35:33;3.08;;;0.98;;
74320;SDS011;62738;45.772;4.804;2023-08-06T05:38:00;8.82;;;1.17;;
74320;SDS011;62738;45.772;4.804;2023-08-06T05:40:27;4.85;;;1.00;;
74320;SDS011;62738;45.772;4.804;2023-08-06T05:42:54;6.03;;;1.17;;
74320;SDS011;62738;45.772;4.804;2023-08-06T05:45:21;4.72;;;0.85;;
74320;SDS011;62738;45.772;4.804;2023-08-06T05:47:48;4.05;;;0.90;;
74320;SDS011;62738;45.772;4.804;2023-08-06T05:50:14;5.57;;;1.10;;
74320;SDS011;62738;45.772;4.804;2023-08-06T05:52:42;7.38;;;0.98;;
74320;SDS011;62738;45.772;4.804;2023-08-06T05:55:09;6.10;;;1.23;;
74320;SDS011;62738;45.772;4.804;2023-08-06T05:57:35;5.57;;;0.85;;
74320;SDS011;62738;45.772;4.804;2023-08-06T06:00:02;4.65;;;1.02;;
74320;SDS011;62738;45.772;4.804;2023-08-06T06:02:32;4.43;;;1.05;;
74320;SDS011;62738;45.772;4.804;2023-08-06T06:04:59;5.30;;;0.93;;
74320;SDS011;62738;45.772;4.804;2023-08-06T06:07:25;4.70;;;1.00;;
74320;SDS011;62738;45.772;4.804;2023-08-06T06:09:52;4.47;;;0.90;;
74320;SDS011;62738;45.772;4.804;2023-08-06T06:12:19;5.28;;;0.90;;
74320;SDS011;62738;45.772;4.804;2023-08-06T06:14:46;4.15;;;1.38;;
74320;SDS011;62738;45.772;4.804;2023-08-06T06:17:12;3.88;;;0.80;;
74320;SDS011;62738;45.772;4.804;2023-08-06T06:19:39;6.85;;;1.30;;
74320;SDS011;62738;45.772;4.804;2023-08-06T06:22:06;2.63;;;0.70;;
74320;SDS011;62738;45.772;4.804;2023-08-06T06:24:32;4.15;;;0.80;;
74320;SDS011;62738;45.772;4.804;2023-08-06T06:26:59;2.35;;;0.80;;
74320;SDS011;62738;45.772;4.804;2023-08-06T06:29:26;2.03;;;0.70;;
74320;SDS011;62738;45.772;4.804;2023-08-06T06:31:53;3.65;;;0.70;;
74320;SDS011;62738;45.772;4.804;2023-08-06T06:34:20;5.35;;;0.98;;
74320;SDS011;62738;45.772;4.804;2023-08-06T06:36:46;2.88;;;0.85;;
74320;SDS011;62738;45.772;4.804;2023-08-06T06:39:13;2.22;;;0.70;;
74320;SDS011;62738;45.772;4.804;2023-08-06T06:41:40;1.83;;;0.80;;
74320;SDS011;62738;45.772;4.804;2023-08-06T06:44:06;3.80;;;0.77;;
74320;SDS011;62738;45.772;4.804;2023-08-06T06:46:33;5.20;;;0.88;;
74320;SDS011;62738;45.772;4.804;2023-08-06T06:49:00;3.35;;;0.90;;
74320;SDS011;62738;45.772;4.804;2023-08-06T06:51:26;6.00;;;1.02;;
74320;SDS011;62738;45.772;4.804;2023-08-06T06:53:53;2.75;;;0.80;;
74320;SDS011;62738;45.772;4.804;2023-08-06T06:56:19;3.22;;;0.70;;
74320;SDS011;62738;45.772;4.804;2023-08-06T06:58:46;2.83;;;0.82;;
74320;SDS011;62738;45.772;4.804;2023-08-06T07:01:13;1.98;;;0.50;;
74320;SDS011;62738;45.772;4.804;2023-08-06T07:03:40;3.97;;;0.90;;
74320;SDS011;62738;45.772;4.804;2023-08-06T07:06:06;1.95;;;0.70;;
74320;SDS011;62738;45.772;4.804;2023-08-06T07:08:33;3.47;;;0.95;;
74320;SDS011;62738;45.772;4.804;2023-08-06T07:11:03;4.20;;;0.80;;
74320;SDS011;62738;45.772;4.804;2023-08-06T07:13:31;4.78;;;1.10;;
74320;SDS011;62738;45.772;4.804;2023-08-06T07:15:58;4.18;;;0.80;;
74320;SDS011;62738;45.772;4.804;2023-08-06T07:18:25;4.57;;;0.80;;
74320;SDS011;62738;45.772;4.804;2023-08-06T07:20:53;3.08;;;0.60;;
74320;SDS011;62738;45.772;4.804;2023-08-06T07:23:20;4.15;;;0.88;;
74320;SDS011;62738;45.772;4.804;2023-08-06T07:25:48;3.47;;;0.80;;
74320;SDS011;62738;45.772;4.804;2023-08-06T07:28:15;3.63;;;0.98;;
74320;SDS011;62738;45.772;4.804;2023-08-06T07:30:42;5.05;;;0.57;;
74320;SDS011;62738;45.772;4.804;2023-08-06T07:33:10;5.93;;;0.70;;
74320;SDS011;62738;45.772;4.804;2023-08-06T07:35:37;2.90;;;1.00;;
74320;SDS011;62738;45.772;4.804;2023-08-06T07:38:04;4.65;;;0.75;;
74320;SDS011;62738;45.772;4.804;2023-08-06T07:40:31;3.40;;;0.90;;
74320;SDS011;62738;45.772;4.804;2023-08-06T07:42:58;4.35;;;1.05;;
74320;SDS011;62738;45.772;4.804;2023-08-06T07:45:24;4.88;;;0.82;;
74320;SDS011;62738;45.772;4.804;2023-08-06T07:47:53;4.88;;;0.90;;
74320;SDS011;62738;45.772;4.804;2023-08-06T07:50:20;4.03;;;0.85;;
74320;SDS011;62738;45.772;4.804;2023-08-06T07:52:47;3.00;;;0.90;;
74320;SDS011;62738;45.772;4.804;2023-08-06T07:55:13;3.25;;;0.80;;
74320;SDS011;62738;45.772;4.804;2023-08-06T07:57:40;2.15;;;1.00;;
74320;SDS011;62738;45.772;4.804;2023-08-06T08:00:07;5.32;;;0.90;;
74320;SDS011;62738;45.772;4.804;2023-08-06T08:02:34;4.45;;;0.90;;
74320;SDS011;62738;45.772;4.804;2023-08-06T08:05:00;3.65;;;1.10;;
74320;SDS011;62738;45.772;4.804;2023-08-06T08:07:27;3.47;;;0.70;;
74320;SDS011;62738;45.772;4.804;2023-08-06T08:09:56;1.48;;;0.70;;
74320;SDS011;62738;45.772;4.804;2023-08-06T08:12:23;7.00;;;1.00;;
74320;SDS011;62738;45.772;4.804;2023-08-06T08:14:50;4.13;;;0.75;;
74320;SDS011;62738;45.772;4.804;2023-08-06T08:17:16;4.13;;;1.00;;
74320;SDS011;62738;45.772;4.804;2023-08-06T08:19:43;4.13;;;1.08;;
74320;SDS011;62738;45.772;4.804;2023-08-06T08:22:10;4.30;;;0.98;;
74320;SDS011;62738;45.772;4.804;2023-08-06T08:24:37;5.32;;;1.35;;
74320;SDS011;62738;45.772;4.804;2023-08-06T08:27:03;4.38;;;1.30;;
74320;SDS011;62738;45.772;4.804;2023-08-06T08:29:30;6.25;;;1.38;;
74320;SDS011;62738;45.772;4.804;2023-08-06T08:31:57;3.28;;;1.00;;
74320;SDS011;62738;45.772;4.804;2023-08-06T08:34:24;4.47;;;1.10;;
74320;SDS011;62738;45.772;4.804;2023-08-06T08:36:50;4.60;;;1.10;;
74320;SDS011;62738;45.772;4.804;2023-08-06T08:39:17;4.22;;;1.13;;
74320;SDS011;62738;45.772;4.804;2023-08-06T08:41:44;6.40;;;1.17;;
74320;SDS011;62738;45.772;4.804;2023-08-06T08:44:10;6.30;;;1.45;;
74320;SDS011;62738;45.772;4.804;2023-08-06T08:46:40;4.20;;;1.00;;
74320;SDS011;62738;45.772;4.804;2023-08-06T08:49:07;4.60;;;1.20;;
74320;SDS011;62738;45.772;4.804;2023-08-06T08:51:34;4.70;;;0.98;;
74320;SDS011;62738;45.772;4.804;2023-08-06T08:54:04;6.22;;;1.17;;
74320;SDS011;62738;45.772;4.804;2023-08-06T08:56:34;4.45;;;1.17;;
74320;SDS011;62738;45.772;4.804;2023-08-06T08:59:01;4.07;;;1.10;;
74320;SDS011;62738;45.772;4.804;2023-08-06T09:01:28;4.47;;;1.30;;
74320;SDS011;62738;45.772;4.804;2023-08-06T09:03:55;4.30;;;1.20;;
74320;SDS011;62738;45.772;4.804;2023-08-06T09:06:24;2.67;;;0.88;;
74320;SDS011;62738;45.772;4.804;2023-08-06T09:09:06;4.78;;;0.90;;
74320;SDS011;62738;45.772;4.804;2023-08-06T09:11:39;3.78;;;0.95;;
74320;SDS011;62738;45.772;4.804;2023-08-06T09:14:10;4.20;;;1.10;;
74320;SDS011;62738;45.772;4.804;2023-08-06T09:16:38;2.38;;;0.82;;
74320;SDS011;62738;45.772;4.804;2023-08-06T09:19:11;2.95;;;0.90;;
74320;SDS011;62738;45.772;4.804;2023-08-06T09:21:39;3.13;;;0.90;;
74320;SDS011;62738;45.772;4.804;2023-08-06T09:24:07;3.47;;;1.00;;
74320;SDS011;62738;45.772;4.804;2023-08-06T09:29:06;4.05;;;0.90;;
74320;SDS011;62738;45.772;4.804;2023-08-06T09:31:55;2.58;;;1.27;;
74320;SDS011;62738;45.772;4.804;2023-08-06T09:34:21;3.20;;;0.80;;
74320;SDS011;62738;45.772;4.804;2023-08-06T09:36:49;5.10;;;1.15;;
74320;SDS011;62738;45.772;4.804;2023-08-06T09:39:27;4.68;;;1.10;;
74320;SDS011;62738;45.772;4.804;2023-08-06T09:41:56;4.70;;;1.10;;
74320;SDS011;62738;45.772;4.804;2023-08-06T09:44:24;4.55;;;1.00;;
74320;SDS011;62738;45.772;4.804;2023-08-06T09:46:52;5.22;;;1.10;;
74320;SDS011;62738;45.772;4.804;2023-08-06T09:49:20;3.60;;;1.00;;
74320;SDS011;62738;45.772;4.804;2023-08-06T09:51:51;3.92;;;0.93;;
74320;SDS011;62738;45.772;4.804;2023-08-06T09:54:20;3.63;;;1.10;;
74320;SDS011;62738;45.772;4.804;2023-08-06T09:56:53;3.08;;;1.10;;
74320;SDS011;62738;45.772;4.804;2023-08-06T09:59:21;5.85;;;1.27;;
74320;SDS011;62738;45.772;4.804;2023-08-06T10:01:50;7.35;;;1.38;;
74320;SDS011;62738;45.772;4.804;2023-08-06T10:04:19;4.43;;;1.40;;
74320;SDS011;62738;45.772;4.804;2023-08-06T10:06:52;5.68;;;1.20;;
74320;SDS011;62738;45.772;4.804;2023-08-06T10:09:19;3.72;;;1.10;;
74320;SDS011;62738;45.772;4.804;2023-08-06T10:11:50;5.80;;;1.20;;
74320;SDS011;62738;45.772;4.804;2023-08-06T10:14:21;5.97;;;1.30;;
74320;SDS011;62738;45.772;4.804;2023-08-06T10:16:52;2.78;;;1.20;;
74320;SDS011;62738;45.772;4.804;2023-08-06T10:19:20;5.72;;;1.10;;
74320;SDS011;62738;45.772;4.804;2023-08-06T10:24:59;3.60;;;1.00;;
74320;SDS011;62738;45.772;4.804;2023-08-06T10:27:35;3.90;;;0.98;;
74320;SDS011;62738;45.772;4.804;2023-08-06T10:30:21;2.78;;;0.90;;
74320;SDS011;62738;45.772;4.804;2023-08-06T10:32:58;3.30;;;1.05;;
74320;SDS011;62738;45.772;4.804;2023-08-06T10:35:46;3.53;;;1.20;;
74320;SDS011;62738;45.772;4.804;2023-08-06T10:38:18;1.48;;;0.68;;
74320;SDS011;62738;45.772;4.804;2023-08-06T10:40:49;2.42;;;0.70;;
74320;SDS011;62738;45.772;4.804;2023-08-06T10:43:34;5.88;;;1.15;;
74320;SDS011;62738;45.772;4.804;2023-08-06T10:46:08;4.25;;;0.98;;
74320;SDS011;62738;45.772;4.804;2023-08-06T10:48:45;2.60;;;1.00;;
74320;SDS011;62738;45.772;4.804;2023-08-06T10:51:12;3.92;;;1.17;;
74320;SDS011;62738;45.772;4.804;2023-08-06T10:53:43;3.33;;;1.30;;
74320;SDS011;62738;45.772;4.804;2023-08-06T10:56:14;6.15;;;1.20;;
74320;SDS011;62738;45.772;4.804;2023-08-06T10:58:42;3.35;;;1.15;;
74320;SDS011;62738;45.772;4.804;2023-08-06T11:01:10;3.45;;;1.02;;
74320;SDS011;62738;45.772;4.804;2023-08-06T11:03:37;2.83;;;0.82;;
74320;SDS011;62738;45.772;4.804;2023-08-06T11:06:06;3.33;;;1.45;;
74320;SDS011;62738;45.772;4.804;2023-08-06T11:08:35;4.82;;;1.95;;
74320;SDS011;62738;45.772;4.804;2023-08-06T11:11:08;2.67;;;0.90;;
74320;SDS011;62738;45.772;4.804;2023-08-06T11:13:43;4.30;;;1.20;;
74320;SDS011;62738;45.772;4.804;2023-08-06T11:16:16;5.50;;;1.30;;
74320;SDS011;62738;45.772;4.804;2023-08-06T11:18:45;2.65;;;1.08;;
74320;SDS011;62738;45.772;4.804;2023-08-06T11:21:12;3.45;;;1.10;;
74320;SDS011;62738;45.772;4.804;2023-08-06T11:23:38;3.72;;;1.25;;
74320;SDS011;62738;45.772;4.804;2023-08-06T11:26:06;2.25;;;0.93;;
74320;SDS011;62738;45.772;4.804;2023-08-06T11:28:33;3.40;;;1.20;;
74320;SDS011;62738;45.772;4.804;2023-08-06T11:31:00;3.97;;;1.05;;
74320;SDS011;62738;45.772;4.804;2023-08-06T11:33:30;3.25;;;0.90;;
74320;SDS011;62738;45.772;4.804;2023-08-06T11:35:58;2.72;;;1.10;;
74320;SDS011;62738;45.772;4.804;2023-08-06T11:38:26;4.07;;;0.77;;
74320;SDS011;62738;45.772;4.804;2023-08-06T11:40:55;3.92;;;1.23;;
74320;SDS011;62738;45.772;4.804;2023-08-06T11:43:21;3.28;;;1.10;;
74320;SDS011;62738;45.772;4.804;2023-08-06T11:45:49;9.27;;;1.20;;
74320;SDS011;62738;45.772;4.804;2023-08-06T11:48:16;2.35;;;0.93;;
74320;SDS011;62738;45.772;4.804;2023-08-06T11:50:44;3.10;;;1.27;;
74320;SDS011;62738;45.772;4.804;2023-08-06T11:53:12;2.30;;;0.85;;
74320;SDS011;62738;45.772;4.804;2023-08-06T11:55:40;3.22;;;0.90;;
74320;SDS011;62738;45.772;4.804;2023-08-06T11:58:08;4.68;;;1.23;;
74320;SDS011;62738;45.772;4.804;2023-08-06T12:00:36;4.95;;;2.17;;
74320;SDS011;62738;45.772;4.804;2023-08-06T12:03:04;1.85;;;0.93;;
74320;SDS011;62738;45.772;4.804;2023-08-06T12:05:31;3.40;;;0.90;;
74320;SDS011;62738;45.772;4.804;2023-08-06T12:08:01;3.50;;;1.10;;
74320;SDS011;62738;45.772;4.804;2023-08-06T12:10:30;3.55;;;1.20;;
74320;SDS011;62738;45.772;4.804;2023-08-06T12:12:57;2.45;;;0.70;;
74320;SDS011;62738;45.772;4.804;2023-08-06T12:15:24;2.65;;;0.90;;
74320;SDS011;62738;45.772;4.804;2023-08-06T12:17:51;2.63;;;0.90;;
74320;SDS011;62738;45.772;4.804;2023-08-06T12:20:17;4.03;;;1.05;;
74320;SDS011;62738;45.772;4.804;2023-08-06T12:22:44;2.40;;;1.10;;
74320;SDS011;62738;45.772;4.804;2023-08-06T12:25:12;2.50;;;0.75;;
74320;SDS011;62738;45.772;4.804;2023-08-06T12:27:40;2.58;;;1.20;;
74320;SDS011;62738;45.772;4.804;2023-08-06T12:30:08;2.40;;;1.25;;
74320;SDS011;62738;45.772;4.804;2023-08-06T12:32:37;4.45;;;1.00;;
74320;SDS011;62738;45.772;4.804;2023-08-06T12:35:04;1.58;;;0.80;;
74320;SDS011;62738;45.772;4.804;2023-08-06T12:37:33;2.60;;;1.02;;
74320;SDS011;62738;45.772;4.804;2023-08-06T12:40:00;3.67;;;1.02;;
74320;SDS011;62738;45.772;4.804;2023-08-06T12:42:47;3.38;;;1.05;;
74320;SDS011;62738;45.772;4.804;2023-08-06T12:45:15;3.08;;;1.10;;
74320;SDS011;62738;45.772;4.804;2023-08-06T12:47:41;3.40;;;1.30;;
74320;SDS011;62738;45.772;4.804;2023-08-06T12:50:09;4.25;;;0.90;;
74320;SDS011;62738;45.772;4.804;2023-08-06T12:52:35;2.88;;;1.15;;
74320;SDS011;62738;45.772;4.804;2023-08-06T12:55:02;2.05;;;1.10;;
74320;SDS011;62738;45.772;4.804;2023-08-06T12:57:29;3.50;;;1.17;;
74320;SDS011;62738;45.772;4.804;2023-08-06T13:00:16;3.50;;;1.42;;
74320;SDS011;62738;45.772;4.804;2023-08-06T13:02:43;2.13;;;0.60;;
74320;SDS011;62738;45.772;4.804;2023-08-06T13:05:09;3.67;;;0.90;;
74320;SDS011;62738;45.772;4.804;2023-08-06T13:07:36;3.33;;;1.10;;
74320;SDS011;62738;45.772;4.804;2023-08-06T13:10:03;4.28;;;1.27;;
74320;SDS011;62738;45.772;4.804;2023-08-06T13:12:30;3.47;;;1.10;;
74320;SDS011;62738;45.772;4.804;2023-08-06T13:14:57;2.30;;;0.90;;
74320;SDS011;62738;45.772;4.804;2023-08-06T13:17:25;4.10;;;1.10;;
74320;SDS011;62738;45.772;4.804;2023-08-06T13:19:53;3.83;;;1.00;;
74320;SDS011;62738;45.772;4.804;2023-08-06T13:22:20;2.90;;;0.77;;
74320;SDS011;62738;45.772;4.804;2023-08-06T13:24:46;4.55;;;1.30;;
74320;SDS011;62738;45.772;4.804;2023-08-06T13:27:13;3.22;;;1.38;;
74320;SDS011;62738;45.772;4.804;2023-08-06T13:29:40;1.98;;;0.90;;
74320;SDS011;62738;45.772;4.804;2023-08-06T13:32:06;2.17;;;0.88;;
74320;SDS011;62738;45.772;4.804;2023-08-06T13:34:33;1.65;;;0.75;;
74320;SDS011;62738;45.772;4.804;2023-08-06T13:36:59;4.93;;;1.30;;
74320;SDS011;62738;45.772;4.804;2023-08-06T13:39:26;3.63;;;1.38;;
74320;SDS011;62738;45.772;4.804;2023-08-06T13:41:53;3.63;;;1.02;;
74320;SDS011;62738;45.772;4.804;2023-08-06T13:44:19;3.13;;;1.00;;
74320;SDS011;62738;45.772;4.804;2023-08-06T13:46:46;3.22;;;1.20;;
74320;SDS011;62738;45.772;4.804;2023-08-06T13:49:12;1.88;;;0.80;;
74320;SDS011;62738;45.772;4.804;2023-08-06T13:51:39;2.25;;;1.00;;
74320;SDS011;62738;45.772;4.804;2023-08-06T13:54:06;4.70;;;1.00;;
74320;SDS011;62738;45.772;4.804;2023-08-06T13:56:33;1.75;;;0.82;;
74320;SDS011;62738;45.772;4.804;2023-08-06T13:59:01;3.78;;;0.98;;
74320;SDS011;62738;45.772;4.804;2023-08-06T14:01:27;3.60;;;1.25;;
74320;SDS011;62738;45.772;4.804;2023-08-06T14:04:13;2.35;;;0.93;;
74320;SDS011;62738;45.772;4.804;2023-08-06T14:06:39;2.08;;;1.00;;
74320;SDS011;62738;45.772;4.804;2023-08-06T14:09:06;3.55;;;1.08;;
74320;SDS011;62738;45.772;4.804;2023-08-06T14:11:34;1.58;;;0.80;;
74320;SDS011;62738;45.772;4.804;2023-08-06T14:14:00;3.70;;;1.10;;
74320;SDS011;62738;45.772;4.804;2023-08-06T14:16:29;3.53;;;0.90;;
74320;SDS011;62738;45.772;4.804;2023-08-06T14:18:56;2.78;;;0.82;;
74320;SDS011;62738;45.772;4.804;2023-08-06T14:21:23;2.47;;;1.10;;
74320;SDS011;62738;45.772;4.804;2023-08-06T14:23:49;3.03;;;1.02;;
74320;SDS011;62738;45.772;4.804;2023-08-06T14:26:16;2.38;;;1.17;;
74320;SDS011;62738;45.772;4.804;2023-08-06T14:28:43;4.40;;;1.08;;
74320;SDS011;62738;45.772;4.804;2023-08-06T14:31:11;3.55;;;0.73;;
74320;SDS011;62738;45.772;4.804;2023-08-06T14:33:38;3.90;;;1.08;;
74320;SDS011;62738;45.772;4.804;2023-08-06T14:36:04;3.85;;;1.10;;
74320;SDS011;62738;45.772;4.804;2023-08-06T14:38:31;1.88;;;1.02;;
74320;SDS011;62738;45.772;4.804;2023-08-06T14:41:05;2.28;;;0.90;;
74320;SDS011;62738;45.772;4.804;2023-08-06T14:43:32;1.85;;;0.68;;
74320;SDS011;62738;45.772;4.804;2023-08-06T14:45:59;3.47;;;1.15;;
74320;SDS011;62738;45.772;4.804;2023-08-06T14:48:26;2.05;;;0.90;;
74320;SDS011;62738;45.772;4.804;2023-08-06T14:50:53;3.40;;;1.27;;
74320;SDS011;62738;45.772;4.804;2023-08-06T14:53:20;3.92;;;1.20;;
74320;SDS011;62738;45.772;4.804;2023-08-06T14:55:47;2.50;;;1.02;;
74320;SDS011;62738;45.772;4.804;2023-08-06T14:58:14;3.70;;;0.98;;
74320;SDS011;62738;45.772;4.804;2023-08-06T15:00:41;3.80;;;1.10;;
74320;SDS011;62738;45.772;4.804;2023-08-06T15:03:08;2.97;;;0.88;;
74320;SDS011;62738;45.772;4.804;2023-08-06T15:05:34;5.63;;;1.10;;